Time;durP1;ratioP1;P1;durP2;ratioP2;P2;SDS_P1;SDS_P2;PMS_P1;PMS_P2;Temp;Humidity;BMP_temperature;BMP_pressure;BME280_temperature;BME280_humidity;BME280_pressure;Samples;Min_cycle;Max_cycle;Signal;HPM_P1;HPM_P2
2024/01/09 00:00:37;;;;;;;6.03;2.92;;;;;;;;;;4990048;28;20049;-53
2024/01/09 00:03:03;;;;;;;6.63;3.10;;;;;;;;;;4988853;28;20042;-50
2024/01/09 00:05:29;;;;;;;6.97;3.85;;;;;;;;;;4991883;28;20066;-53
2024/01/09 00:07:55;;;;;;;8.80;3.15;;;;;;;;;;4986172;28;20034;-50
2024/01/09 00:10:21;;;;;;;7.78;3.25;;;;;;;;;;4994000;28;20134;-52
2024/01/09 00:12:47;;;;;;;7.45;3.15;;;-1.80;99.90;;;;;;4990545;28;20042;-50
2024/01/09 00:15:13;;;;;;;5.95;2.78;;;;;;;;;;4993887;28;20601;-52
2024/01/09 00:17:39;;;;;;;9.75;2.97;;;;;;;;;;4995311;28;20589;-52
2024/01/09 00:20:05;;;;;;;6.47;3.03;;;;;;;;;;4988036;28;20133;-50
2024/01/09 00:22:31;;;;;;;9.32;3.25;;;-1.90;99.90;;;;;;4993675;28;20042;-50
2024/01/09 00:24:57;;;;;;;6.63;2.63;;;;;;;;;;4989550;28;20114;-53
2024/01/09 00:27:23;;;;;;;6.72;2.80;;;;;;;;;;4991471;28;20075;-52
2024/01/09 00:29:49;;;;;;;7.60;3.08;;;;;;;;;;4993190;28;20144;-50
2024/01/09 00:32:15;;;;;;;9.52;2.70;;;;;;;;;;5061448;23;20072;-53
2024/01/09 00:34:41;;;;;;;7.45;3.22;;;;;;;;;;5009105;28;20142;-52
2024/01/09 00:37:07;;;;;;;6.60;2.55;;;-1.90;99.90;;;;;;5010125;28;20397;-55
2024/01/09 00:39:33;;;;;;;7.40;2.95;;;;;;;;;;5008758;28;20096;-54
2024/01/09 00:41:59;;;;;;;7.82;2.80;;;;;;;;;;5003803;28;20084;-54
2024/01/09 00:44:25;;;;;;;7.22;3.03;;;;;;;;;;5007485;28;20496;-54
2024/01/09 00:46:51;;;;;;;5.43;2.80;;;;;;;;;;4998214;28;20038;-54
2024/01/09 00:49:17;;;;;;;6.82;2.97;;;;;;;;;;5005168;28;20041;-55
2024/01/09 00:51:43;;;;;;;7.65;3.13;;;;;;;;;;5003733;28;20041;-52
2024/01/09 00:54:09;;;;;;;6.38;2.67;;;;;;;;;;5003952;28;20038;-55
2024/01/09 00:56:35;;;;;;;6.63;3.03;;;;;;;;;;5002307;28;20572;-53
2024/01/09 00:59:01;;;;;;;6.93;3.10;;;;;;;;;;5003462;28;20042;-51
2024/01/09 01:01:26;;;;;;;9.18;3.03;;;-2.20;99.90;;;;;;5007306;28;20034;-54
2024/01/09 01:03:52;;;;;;;5.97;2.42;;;;;;;;;;5002521;28;20101;-54
2024/01/09 01:06:18;;;;;;;8.88;2.63;;;;;;;;;;5005829;28;20037;-52
2024/01/09 01:08:44;;;;;;;8.57;3.83;;;;;;;;;;5002774;28;20046;-53
2024/01/09 01:11:10;;;;;;;6.28;2.80;;;;;;;;;;5000400;28;20133;-53
2024/01/09 01:13:36;;;;;;;12.60;3.97;;;;;;;;;;5005646;28;20169;-51
2024/01/09 01:16:02;;;;;;;7.32;3.28;;;-2.20;99.90;;;;;;4998877;28;20125;-54
2024/01/09 01:18:28;;;;;;;7.45;3.22;;;;;;;;;;5002620;28;20529;-54
2024/01/09 01:20:54;;;;;;;7.10;3.08;;;;;;;;;;5008967;28;20173;-51
2024/01/09 01:23:20;;;;;;;8.18;2.95;;;;;;;;;;5005442;28;20034;-54
2024/01/09 01:25:46;;;;;;;6.30;2.75;;;;;;;;;;5002164;28;20120;-53
2024/01/09 01:28:12;;;;;;;6.45;3.15;;;;;;;;;;4999319;28;20076;-54
2024/01/09 01:30:38;;;;;;;6.80;3.10;;;;;;;;;;5005233;28;20061;-52
2024/01/09 01:33:04;;;;;;;5.78;2.33;;;;;;;;;;5001078;28;20038;-52
2024/01/09 01:35:30;;;;;;;6.65;2.75;;;;;;;;;;5006465;28;20056;-54
2024/01/09 01:37:56;;;;;;;6.78;2.95;;;;;;;;;;5001580;28;20113;-54
2024/01/09 01:40:22;;;;;;;8.70;3.30;;;;;;;;;;5007341;28;20129;-53
2024/01/09 01:42:48;;;;;;;7.95;3.78;;;;;;;;;;5005028;28;20064;-51
2024/01/09 01:45:16;;;;;;;9.25;4.03;;;;;;;;;;5005322;28;20072;-54
2024/01/09 01:47:46;;;;;;;6.82;3.25;;;-2.30;99.90;;;;;;5006638;28;20069;-55
2024/01/09 01:50:13;;;;;;;6.75;3.15;;;;;;;;;;5002315;28;20057;-54
2024/01/09 01:52:40;;;;;;;7.07;2.92;;;;;;;;;;5005824;28;20034;-54
2024/01/09 01:55:06;;;;;;;6.75;3.00;;;;;;;;;;5003617;28;20099;-54
2024/01/09 01:57:32;;;;;;;7.18;2.75;;;;;;;;;;5004636;28;20041;-53
2024/01/09 01:59:58;;;;;;;6.20;2.55;;;;;;;;;;5009808;28;20045;-55
2024/01/09 02:02:26;;;;;;;7.93;3.08;;;-2.60;99.90;;;;;;5003353;28;20038;-54
2024/01/09 02:04:52;;;;;;;7.40;3.65;;;;;;;;;;5002612;28;20065;-52
2024/01/09 02:07:18;;;;;;;7.28;2.90;;;;;;;;;;5008657;28;20561;-52
2024/01/09 02:09:44;;;;;;;6.65;3.05;;;;;;;;;;5010731;28;20049;-55
2024/01/09 02:12:10;;;;;;;5.90;2.70;;;;;;;;;;5009969;28;20060;-53
2024/01/09 02:14:36;;;;;;;6.53;2.72;;;;;;;;;;5008809;28;20044;-54
2024/01/09 02:17:03;;;;;;;7.47;3.10;;;;;;;;;;5003793;28;20042;-54
2024/01/09 02:19:30;;;;;;;7.40;3.42;;;;;;;;;;5006009;28;20038;-52
2024/01/09 02:21:56;;;;;;;9.52;3.58;;;;;;;;;;5008711;28;20076;-52
2024/01/09 02:24:22;;;;;;;8.50;3.05;;;;;;;;;;5007037;28;20082;-54
2024/01/09 02:26:52;;;;;;;7.55;2.88;;;;;;;;;;5006536;28;20578;-54
2024/01/09 02:29:23;;;;;;;7.47;3.85;;;;;;;;;;5003080;28;21312;-54
2024/01/09 02:31:49;;;;;;;7.25;3.13;;;;;;;;;;5010025;28;20113;-54
2024/01/09 02:34:15;;;;;;;7.75;3.78;;;-2.60;99.90;;;;;;5009183;28;20053;-54
2024/01/09 02:36:41;;;;;;;6.15;3.03;;;;;;;;;;5008868;28;20365;-54
2024/01/09 02:39:07;;;;;;;7.97;3.90;;;;;;;;;;5001538;28;20092;-55
2024/01/09 02:41:39;;;;;;;7.20;2.72;;;;;;;;;;5008034;28;20033;-54
2024/01/09 02:44:05;;;;;;;7.47;4.32;;;-2.70;99.90;;;;;;5008016;28;20030;-53
2024/01/09 02:46:31;;;;;;;9.25;3.38;;;;;;;;;;4993050;28;20103;-52
2024/01/09 02:48:57;;;;;;;8.68;3.22;;;;;;;;;;5002318;28;20045;-54
2024/01/09 02:51:23;;;;;;;8.85;4.05;;;;;;;;;;5006129;28;20034;-53
2024/01/09 02:53:49;;;;;;;7.57;3.40;;;;;;;;;;5011817;28;20049;-53
2024/01/09 02:56:15;;;;;;;9.55;3.38;;;;;;;;;;5012759;28;20073;-54
2024/01/09 02:58:41;;;;;;;9.07;3.40;;;;;;;;;;5008436;28;20354;-54
2024/01/09 03:01:07;;;;;;;8.82;3.95;;;;;;;;;;5011568;28;20049;-53
2024/01/09 03:03:33;;;;;;;7.82;3.38;;;;;;;;;;5012573;28;20038;-50
2024/01/09 03:05:59;;;;;;;7.55;3.22;;;;;;;;;;5009022;28;20120;-50
2024/01/09 03:08:25;;;;;;;6.78;2.97;;;;;;;;;;5005433;28;20516;-52
2024/01/09 03:10:51;;;;;;;7.03;3.22;;;;;;;;;;5005570;28;20039;-53
2024/01/09 03:13:17;;;;;;;8.52;3.92;;;;;;;;;;5007184;28;20050;-53
2024/01/09 03:15:43;;;;;;;8.07;3.28;;;;;;;;;;5010538;28;20033;-53
2024/01/09 03:18:09;;;;;;;8.75;3.38;;;;;;;;;;5007915;28;20037;-52
2024/01/09 03:20:35;;;;;;;8.23;2.90;;;;;;;;;;5014722;28;20456;-50
2024/01/09 03:23:01;;;;;;;10.07;3.72;;;;;;;;;;5013140;28;20084;-49
2024/01/09 03:25:27;;;;;;;8.40;3.42;;;-2.80;99.90;;;;;;5009930;28;20034;-51
2024/01/09 03:27:55;;;;;;;7.45;3.40;;;;;;;;;;5011993;28;20516;-53
2024/01/09 03:30:22;;;;;;;8.93;4.10;;;;;;;;;;5010991;28;20042;-53
2024/01/09 03:32:48;;;;;;;7.20;3.45;;;;;;;;;;5010318;28;20044;-51
2024/01/09 03:35:14;;;;;;;9.00;3.35;;;;;;;;;;5005987;28;20512;-50
2024/01/09 03:37:40;;;;;;;7.57;3.47;;;;;;;;;;5010438;28;20125;-50
2024/01/09 03:40:06;;;;;;;9.32;3.55;;;;;;;;;;5009344;28;20117;-52
2024/01/09 03:42:32;;;;;;;8.15;3.28;;;;;;;;;;5014292;28;20037;-53
2024/01/09 03:44:58;;;;;;;8.32;3.20;;;;;;;;;;5011819;28;20050;-51
2024/01/09 03:47:24;;;;;;;8.93;3.97;;;;;;;;;;5014412;28;20178;-50
2024/01/09 03:49:50;;;;;;;9.13;3.85;;;;;;;;;;5014053;28;20075;-49
2024/01/09 03:52:16;;;;;;;7.15;3.20;;;-3.00;99.90;;;;;;5011182;28;20628;-53
2024/01/09 03:54:42;;;;;;;6.63;3.60;;;;;;;;;;5017987;28;20037;-52
2024/01/09 03:57:08;;;;;;;7.72;3.28;;;;;;;;;;5004368;28;20038;-50
2024/01/09 03:59:34;;;;;;;7.53;3.28;;;;;;;;;;5010489;28;20038;-52
2024/01/09 04:02:00;;;;;;;7.93;3.42;;;;;;;;;;5008578;28;20125;-51
2024/01/09 04:04:26;;;;;;;8.60;3.47;;;;;;;;;;5010348;28;20501;-53
2024/01/09 04:06:52;;;;;;;8.85;3.88;;;;;;;;;;5012743;28;20046;-53
2024/01/09 04:09:18;;;;;;;7.25;3.30;;;;;;;;;;5010412;28;20045;-53
2024/01/09 04:11:45;;;;;;;8.30;2.80;;;;;;;;;;5007800;28;20559;-50
2024/01/09 04:14:11;;;;;;;6.80;3.42;;;;;;;;;;5014048;28;20038;-51
2024/01/09 04:16:37;;;;;;;7.35;3.40;;;;;;;;;;5011719;28;20038;-49
2024/01/09 04:19:03;;;;;;;9.52;3.10;;;;;;;;;;5010510;28;20030;-51
2024/01/09 04:21:29;;;;;;;7.97;3.30;;;;;;;;;;5011301;28;20068;-50
2024/01/09 04:23:55;;;;;;;7.50;3.10;;;;;;;;;;5011824;28;20069;-51
2024/01/09 04:26:21;;;;;;;8.25;3.72;;;;;;;;;;5010890;28;20099;-53
2024/01/09 04:28:47;;;;;;;7.10;2.85;;;;;;;;;;5010341;28;20117;-54
2024/01/09 04:31:13;;;;;;;7.50;3.10;;;;;;;;;;5010811;28;20070;-53
2024/01/09 04:33:41;;;;;;;7.70;3.42;;;;;;;;;;5012019;28;20085;-51
2024/01/09 04:36:07;;;;;;;8.77;2.97;;;-2.90;99.90;;;;;;5011458;28;20044;-54
2024/01/09 04:38:33;;;;;;;7.47;3.63;;;;;;;;;;5010394;28;20108;-53
2024/01/09 04:40:59;;;;;;;7.45;2.90;;;;;;;;;;5010753;28;20065;-54
2024/01/09 04:43:25;;;;;;;9.20;3.63;;;;;;;;;;5006826;28;20125;-52
2024/01/09 04:45:51;;;;;;;9.32;3.08;;;;;;;;;;5010532;28;20042;-53
2024/01/09 04:48:17;;;;;;;7.68;3.03;;;;;;;;;;5010823;28;20065;-51
2024/01/09 04:50:43;;;;;;;7.45;3.17;;;;;;;;;;5008217;28;20038;-51
2024/01/09 04:53:09;;;;;;;9.10;4.25;;;;;;;;;;5011457;28;20045;-53
2024/01/09 04:55:35;;;;;;;9.63;4.82;;;;;;;;;;5012198;28;20472;-50
2024/01/09 04:58:00;;;;;;;7.15;3.13;;;-2.90;99.90;;;;;;5010855;28;20045;-50
2024/01/09 05:00:26;;;;;;;9.48;3.00;;;;;;;;;;5015447;28;20034;-53
2024/01/09 05:02:53;;;;;;;8.23;3.42;;;;;;;;;;5010992;28;20429;-51
2024/01/09 05:05:19;;;;;;;7.28;3.20;;;;;;;;;;5011107;28;20038;-53
2024/01/09 05:07:46;;;;;;;6.90;2.95;;;;;;;;;;5014646;28;20041;-52
2024/01/09 05:10:11;;;;;;;9.00;3.45;;;-3.00;99.90;;;;;;5010430;28;20087;-53
2024/01/09 05:12:38;;;;;;;7.00;3.08;;;;;;;;;;5009825;28;20065;-53
2024/01/09 05:15:04;;;;;;;8.02;3.17;;;-3.00;99.90;;;;;;5010097;28;20042;-51
2024/01/09 05:17:30;;;;;;;7.32;4.00;;;;;;;;;;5009913;28;20041;-52
2024/01/09 05:19:56;;;;;;;9.77;3.38;;;-3.00;99.90;;;;;;5010185;28;20457;-52
2024/01/09 05:22:22;;;;;;;8.82;3.47;;;;;;;;;;4991347;28;20120;-52
2024/01/09 05:24:48;;;;;;;6.65;3.42;;;;;;;;;;5010119;28;20046;-52
2024/01/09 05:27:14;;;;;;;7.65;3.47;;;;;;;;;;5007059;28;20038;-53
2024/01/09 05:29:40;;;;;;;7.88;3.72;;;;;;;;;;5008752;28;20045;-50
2024/01/09 05:32:07;;;;;;;8.38;3.30;;;;;;;;;;5007983;28;20195;-50
2024/01/09 05:34:33;;;;;;;8.65;3.97;;;;;;;;;;5007230;28;20529;-53
2024/01/09 05:36:59;;;;;;;8.10;4.03;;;;;;;;;;5006951;28;20034;-52
2024/01/09 05:39:25;;;;;;;8.40;3.47;;;;;;;;;;5008531;28;20060;-53
2024/01/09 05:41:51;;;;;;;7.32;3.72;;;;;;;;;;4991804;28;20080;-52
2024/01/09 05:44:17;;;;;;;8.85;4.13;;;;;;;;;;5006470;28;20453;-53
2024/01/09 05:46:43;;;;;;;10.82;4.63;;;;;;;;;;5009206;28;20038;-52
2024/01/09 05:49:09;;;;;;;6.68;3.35;;;-3.10;99.90;;;;;;4988215;28;20038;-51
2024/01/09 05:51:34;;;;;;;7.90;3.67;;;-3.10;99.90;;;;;;5002305;28;20080;-53
2024/01/09 05:54:00;;;;;;;10.57;4.57;;;;;;;;;;4996447;28;20034;-48
2024/01/09 05:56:26;;;;;;;10.55;3.90;;;;;;;;;;5002713;28;20046;-51
2024/01/09 05:58:52;;;;;;;9.30;3.92;;;;;;;;;;4995896;28;20062;-50
2024/01/09 06:01:18;;;;;;;9.10;4.40;;;;;;;;;;5000627;28;20041;-53
2024/01/09 06:03:44;;;;;;;9.77;4.07;;;;;;;;;;5005364;28;20052;-53
2024/01/09 06:06:10;;;;;;;9.07;4.22;;;;;;;;;;4999692;28;20038;-51
2024/01/09 06:08:36;;;;;;;8.80;4.45;;;;;;;;;;5000649;28;20052;-50
2024/01/09 06:11:02;;;;;;;9.15;4.18;;;-3.20;99.90;;;;;;4980699;28;20061;-51
2024/01/09 06:13:28;;;;;;;8.95;4.28;;;;;;;;;;5003353;28;20504;-53
2024/01/09 06:15:54;;;;;;;8.77;3.90;;;;;;;;;;5004119;28;20112;-49
2024/01/09 06:18:20;;;;;;;8.20;4.45;;;;;;;;;;4990932;28;20045;-53
2024/01/09 06:20:46;;;;;;;8.63;3.97;;;;;;;;;;5006649;28;20041;-52
2024/01/09 06:23:12;;;;;;;10.05;5.30;;;;;;;;;;5008904;28;20420;-54
2024/01/09 06:25:38;;;;;;;10.23;4.47;;;;;;;;;;5009205;28;20046;-53
2024/01/09 06:28:04;;;;;;;10.55;5.05;;;;;;;;;;5008674;28;20042;-50
2024/01/09 06:30:34;;;;;;;8.35;3.60;;;;;;;;;;5009337;28;20042;-50
2024/01/09 06:33:00;;;;;;;8.98;4.07;;;;;;;;;;5085736;23;20052;-53
2024/01/09 06:35:26;;;;;;;8.65;4.30;;;;;;;;;;5024999;28;20046;-53
2024/01/09 06:37:52;;;;;;;8.68;4.30;;;;;;;;;;5034521;28;20522;-54
2024/01/09 06:40:19;;;;;;;10.73;4.65;;;;;;;;;;5044741;28;20131;-53
2024/01/09 06:42:46;;;;;;;8.23;4.15;;;;;;;;;;5034782;28;20262;-55
2024/01/09 06:45:14;;;;;;;7.05;3.78;;;;;;;;;;5042869;28;20044;-55
2024/01/09 06:47:40;;;;;;;8.90;4.63;;;;;;;;;;5039856;28;20041;-55
2024/01/09 06:50:07;;;;;;;12.20;6.15;;;;;;;;;;5031082;28;20044;-54
2024/01/09 06:52:33;;;;;;;9.13;4.10;;;;;;;;;;5042367;28;20076;-52
2024/01/09 06:54:58;;;;;;;8.77;4.28;;;;;;;;;;5039420;28;20672;-52
2024/01/09 06:57:25;;;;;;;9.32;3.85;;;;;;;;;;5046730;28;20044;-55
2024/01/09 06:59:51;;;;;;;11.68;4.32;;;-3.60;99.90;;;;;;5038370;28;20041;-54
2024/01/09 07:02:17;;;;;;;8.35;4.15;;;;;;;;;;5043138;28;20036;-52
2024/01/09 07:04:43;;;;;;;7.85;4.38;;;;;;;;;;5042839;28;20113;-56
2024/01/09 07:07:09;;;;;;;7.88;3.70;;;;;;;;;;5038939;28;20053;-58
2024/01/09 07:09:38;;;;;;;8.80;3.72;;;;;;;;;;5038808;28;20475;-59
2024/01/09 07:12:04;;;;;;;8.65;4.18;;;;;;;;;;5042560;28;20060;-57
2024/01/09 07:14:30;;;;;;;8.23;4.18;;;;;;;;;;5040909;28;20116;-56
2024/01/09 07:16:56;;;;;;;8.13;4.45;;;;;;;;;;5040874;28;20133;-57
2024/01/09 07:19:22;;;;;;;9.70;4.35;;;;;;;;;;5036880;28;20386;-58
2024/01/09 07:21:47;;;;;;;9.50;4.47;;;-3.60;99.90;;;;;;5022153;28;20099;-54
2024/01/09 07:24:13;;;;;;;8.18;4.03;;;;;;;;;;5040468;28;20060;-56
2024/01/09 07:26:39;;;;;;;9.35;4.32;;;-3.50;99.90;;;;;;5038534;28;20044;-58
2024/01/09 07:29:06;;;;;;;7.97;3.97;;;;;;;;;;5039945;28;20033;-57
2024/01/09 07:31:32;;;;;;;8.35;3.92;;;;;;;;;;5037016;28;20037;-57
2024/01/09 07:33:58;;;;;;;8.93;4.22;;;;;;;;;;5041620;28;20095;-56
2024/01/09 07:36:24;;;;;;;10.25;4.45;;;;;;;;;;5035386;28;20040;-57
2024/01/09 07:38:50;;;;;;;8.57;4.10;;;;;;;;;;5040014;28;20037;-55
2024/01/09 07:41:17;;;;;;;8.25;4.32;;;;;;;;;;5041751;28;20033;-54
2024/01/09 07:43:43;;;;;;;7.93;4.05;;;;;;;;;;5039661;28;20043;-54
2024/01/09 07:46:10;;;;;;;8.68;3.95;;;;;;;;;;5038844;28;20040;-56
2024/01/09 07:48:36;;;;;;;7.85;3.60;;;;;;;;;;5036205;28;20048;-58
2024/01/09 07:51:02;;;;;;;7.88;3.90;;;;;;;;;;5040199;28;20124;-57
2024/01/09 07:53:28;;;;;;;7.38;3.67;;;;;;;;;;5040606;28;20072;-56
2024/01/09 07:55:54;;;;;;;7.72;3.60;;;;;;;;;;5041807;28;20096;-57
2024/01/09 07:58:20;;;;;;;8.68;4.47;;;-3.90;99.90;;;;;;5042191;28;20040;-54
2024/01/09 08:00:46;;;;;;;9.18;4.25;;;;;;;;;;5043316;28;20037;-57
2024/01/09 08:03:14;;;;;;;9.55;4.72;;;;;;;;;;5044781;28;20411;-54
2024/01/09 08:05:40;;;;;;;8.23;4.15;;;;;;;;;;5036325;28;20124;-55
2024/01/09 08:08:06;;;;;;;10.95;4.10;;;;;;;;;;5042918;28;20400;-55
2024/01/09 08:10:32;;;;;;;6.85;3.60;;;;;;;;;;5040223;28;20045;-58
2024/01/09 08:12:58;;;;;;;6.88;3.60;;;;;;;;;;5040302;28;20051;-55
2024/01/09 08:15:25;;;;;;;7.38;3.53;;;;;;;;;;5043032;28;20041;-57
2024/01/09 08:17:51;;;;;;;9.77;3.33;;;;;;;;;;5042625;28;20739;-57
2024/01/09 08:20:17;;;;;;;7.88;4.00;;;;;;;;;;5044835;28;20416;-57
2024/01/09 08:22:43;;;;;;;9.70;4.05;;;;;;;;;;5040964;28;20567;-53
2024/01/09 08:25:09;;;;;;;7.53;4.18;;;;;;;;;;5042034;28;20040;-56
2024/01/09 08:27:35;;;;;;;6.57;3.40;;;;;;;;;;5041233;28;20029;-54
2024/01/09 08:30:01;;;;;;;8.65;4.38;;;;;;;;;;5040955;28;20404;-57
2024/01/09 08:32:27;;;;;;;12.38;3.90;;;;;;;;;;5042907;28;20055;-54
2024/01/09 08:34:53;;;;;;;8.20;3.95;;;-3.70;99.90;;;;;;5041472;28;20053;-54
2024/01/09 08:37:19;;;;;;;8.80;4.20;;;;;;;;;;5039372;28;20048;-54
2024/01/09 08:39:45;;;;;;;7.55;3.45;;;;;;;;;;5039715;28;20040;-54
2024/01/09 08:42:11;;;;;;;8.73;3.83;;;;;;;;;;5042832;28;20048;-58
2024/01/09 08:44:37;;;;;;;8.25;3.88;;;;;;;;;;5040679;28;20033;-57
2024/01/09 08:47:04;;;;;;;9.93;3.85;;;;;;;;;;5041081;28;20041;-56
2024/01/09 08:49:30;;;;;;;7.43;3.63;;;;;;;;;;5040829;28;20044;-54
2024/01/09 08:51:56;;;;;;;7.32;3.45;;;;;;;;;;5042705;28;20155;-53
2024/01/09 08:54:22;;;;;;;9.35;4.38;;;;;;;;;;5040633;28;20037;-56
2024/01/09 08:56:48;;;;;;;8.73;4.03;;;;;;;;;;5040422;28;20628;-57
2024/01/09 08:59:14;;;;;;;6.93;3.55;;;;;;;;;;5038123;28;20056;-56
2024/01/09 09:01:40;;;;;;;7.65;3.30;;;;;;;;;;5040673;28;20116;-53
2024/01/09 09:04:06;;;;;;;7.80;3.50;;;;;;;;;;5044006;28;20193;-55
2024/01/09 09:06:32;;;;;;;5.80;2.65;;;;;;;;;;5043341;28;20035;-56
2024/01/09 09:08:59;;;;;;;9.57;3.08;;;;;;;;;;5034846;28;20044;-56
2024/01/09 09:11:25;;;;;;;7.78;3.38;;;;;;;;;;5039364;28;20049;-54
2024/01/09 09:13:50;;;;;;;6.28;3.45;;;-3.50;99.90;;;;;;5035751;28;20088;-54
2024/01/09 09:16:16;;;;;;;8.88;3.50;;;;;;;;;;5038684;28;20064;-54
2024/01/09 09:18:44;;;;;;;7.70;2.83;;;;;;;;;;5035229;28;20029;-56
2024/01/09 09:21:10;;;;;;;6.43;3.47;;;;;;;;;;5038666;28;20045;-55
2024/01/09 09:23:36;;;;;;;8.05;4.30;;;;;;;;;;5038197;28;20044;-57
2024/01/09 09:26:03;;;;;;;6.30;2.97;;;;;;;;;;5038999;28;20520;-55
2024/01/09 09:28:29;;;;;;;9.48;3.63;;;;;;;;;;5019594;28;20117;-54
2024/01/09 09:30:55;;;;;;;6.53;3.45;;;;;;;;;;5036222;28;20045;-54
2024/01/09 09:33:21;;;;;;;6.35;2.80;;;;;;;;;;5038021;28;20044;-54
2024/01/09 09:35:47;;;;;;;7.60;3.47;;;;;;;;;;5037910;28;20049;-57
2024/01/09 09:38:14;;;;;;;6.65;3.00;;;-2.80;99.90;;;;;;5036182;28;20041;-53
2024/01/09 09:40:41;;;;;;;7.03;3.38;;;;;;;;;;5040287;28;20041;-54
2024/01/09 09:43:10;;;;;;;8.50;3.30;;;;;;;;;;5036088;28;20041;-55
2024/01/09 09:45:38;;;;;;;6.53;2.88;;;;;;;;;;5040343;28;20047;-55
2024/01/09 09:48:04;;;;;;;7.65;3.38;;;;;;;;;;5037963;28;20037;-57
2024/01/09 09:50:30;;;;;;;6.75;3.13;;;;;;;;;;5038162;28;20037;-57
2024/01/09 09:52:57;;;;;;;7.47;3.60;;;;;;;;;;5038999;28;20525;-58
2024/01/09 09:55:23;;;;;;;6.75;2.90;;;;;;;;;;5040057;28;20041;-57
2024/01/09 09:57:49;;;;;;;6.35;2.72;;;;;;;;;;5039860;28;20751;-58
2024/01/09 10:00:15;;;;;;;6.75;3.20;;;;;;;;;;5037294;28;20582;-57
2024/01/09 10:02:48;;;;;;;9.40;3.00;;;;;;;;;;5037730;28;20045;-58
2024/01/09 10:05:16;;;;;;;5.50;2.45;;;;;;;;;;5037976;28;20128;-57
2024/01/09 10:07:44;;;;;;;7.30;3.15;;;;;;;;;;5037407;28;20050;-54
2024/01/09 10:10:12;;;;;;;7.05;2.95;;;;;;;;;;5038678;28;20044;-57
2024/01/09 10:12:39;;;;;;;6.82;2.92;;;;;;;;;;5039265;28;20147;-57
2024/01/09 10:15:12;;;;;;;8.85;3.40;;;;;;;;;;5038562;28;20048;-56
2024/01/09 10:17:39;;;;;;;6.23;2.77;;;;;;;;;;5041364;28;20422;-54
2024/01/09 10:20:08;;;;;;;6.32;2.83;;;;;;;;;;5037644;28;20055;-56
2024/01/09 10:22:35;;;;;;;6.10;2.88;;;;;;;;;;5038071;28;20070;-57
2024/01/09 10:25:10;;;;;;;8.27;3.22;;;;;;;;;;5021627;28;20049;-57
2024/01/09 10:27:36;;;;;;;5.82;2.50;;;;;;;;;;5037527;28;20195;-55
2024/01/09 10:30:04;;;;;;;5.97;2.50;;;;;;;;;;5037574;28;20052;-56
2024/01/09 10:32:33;;;;;;;6.40;2.50;;;;;;;;;;5022695;28;20059;-56
2024/01/09 10:34:59;;;;;;;6.60;2.97;;;;;;;;;;5038317;28;20041;-53
2024/01/09 10:37:25;;;;;;;6.50;2.78;;;;;;;;;;5038259;28;20682;-56
2024/01/09 10:39:52;;;;;;;6.55;3.10;;;;;;;;;;5034680;28;20127;-56
2024/01/09 10:42:18;;;;;;;7.07;3.05;;;;;;;;;;5038799;28;20072;-56
2024/01/09 10:44:47;;;;;;;6.90;3.28;;;;;;;;;;5038619;28;20464;-54
2024/01/09 10:47:14;;;;;;;6.35;3.28;;;-2.10;99.90;;;;;;5039133;28;20041;-52
2024/01/09 10:49:41;;;;;;;6.57;2.75;;;;;;;;;;5022074;28;20029;-54
2024/01/09 10:52:15;;;;;;;6.72;3.15;;;-1.60;99.90;;;;;;5035390;28;20052;-54
2024/01/09 10:54:42;;;;;;;7.65;3.55;;;;;;;;;;5038488;28;20504;-54
2024/01/09 10:57:13;;;;;;;7.13;2.85;;;-1.60;99.90;;;;;;5037798;28;20854;-54
2024/01/09 10:59:43;;;;;;;6.15;2.88;;;-1.70;99.90;;;;;;5036921;28;20390;-56
2024/01/09 11:02:12;;;;;;;6.40;3.38;;;;;;;;;;5039024;28;20340;-54
2024/01/09 11:04:39;;;;;;;7.28;3.45;;;;;;;;;;5038878;28;20077;-54
2024/01/09 11:07:06;;;;;;;7.82;3.33;;;;;;;;;;5037690;28;20099;-55
2024/01/09 11:09:33;;;;;;;6.85;3.22;;;;;;;;;;5035326;28;20041;-55
2024/01/09 11:11:59;;;;;;;7.57;3.03;;;;;;;;;;5039926;28;20144;-53
2024/01/09 11:14:25;;;;;;;5.95;2.80;;;;;;;;;;5041934;28;20540;-54
2024/01/09 11:16:53;;;;;;;6.88;3.33;;;-1.70;99.90;;;;;;5042266;28;20040;-55
2024/01/09 11:19:19;;;;;;;6.90;3.00;;;;;;;;;;5024368;28;20058;-54
2024/01/09 11:21:45;;;;;;;5.93;2.85;;;;;;;;;;5042734;28;20468;-54
2024/01/09 11:24:11;;;;;;;7.90;3.65;;;;;;;;;;5042688;28;20439;-55
2024/01/09 11:26:41;;;;;;;6.63;2.75;;;;;;;;;;5041285;28;20476;-53
2024/01/09 11:29:08;;;;;;;6.10;3.13;;;;;;;;;;5042829;28;20064;-53
2024/01/09 11:31:35;;;;;;;6.72;2.40;;;;;;;;;;5026032;28;20057;-56
2024/01/09 11:34:02;;;;;;;5.80;2.45;;;;;;;;;;5026298;28;20519;-54
2024/01/09 11:36:29;;;;;;;7.20;2.88;;;;;;;;;;5043793;28;20041;-55
2024/01/09 11:38:55;;;;;;;5.72;2.40;;;;;;;;;;5043633;28;20079;-53
2024/01/09 11:41:23;;;;;;;6.32;2.42;;;;;;;;;;5045644;28;20045;-56
2024/01/09 11:44:05;;;;;;;7.60;2.53;;;;;;;;;;5045102;28;20102;-56
2024/01/09 11:46:35;;;;;;;10.82;3.08;;;;;;;;;;5045067;28;20044;-56
2024/01/09 11:49:02;;;;;;;7.00;3.13;;;;;;;;;;5041222;28;20122;-56
2024/01/09 11:51:31;;;;;;;6.03;3.08;;;;;;;;;;5044316;28;20044;-55
2024/01/09 11:54:01;;;;;;;6.18;2.67;;;;;;;;;;5044384;28;20045;-55
2024/01/09 11:56:27;;;;;;;5.38;2.50;;;;;;;;;;5043570;28;20036;-57
2024/01/09 11:58:54;;;;;;;6.15;2.28;;;;;;;;;;5044938;28;20559;-54
2024/01/09 12:01:20;;;;;;;5.97;2.92;;;;;;;;;;5042051;28;20603;-53
2024/01/09 12:03:50;;;;;;;6.00;2.45;;;;;;;;;;5044706;28;20111;-56
2024/01/09 12:06:16;;;;;;;5.82;2.67;;;;;;;;;;5041692;28;20427;-53
2024/01/09 12:08:42;;;;;;;8.30;3.67;;;;;;;;;;5043948;28;20039;-53
2024/01/09 12:11:08;;;;;;;6.72;2.78;;;;;;;;;;5041822;28;20036;-56
2024/01/09 12:13:35;;;;;;;6.50;2.70;;;;;;;;;;5043603;28;20411;-56
2024/01/09 12:16:01;;;;;;;6.22;2.58;;;;;;;;;;5042779;28;20037;-54
2024/01/09 12:18:27;;;;;;;5.93;2.70;;;;;;;;;;5042724;28;20288;-56
2024/01/09 12:20:53;;;;;;;5.65;2.47;;;8.90;99.90;;;;;;5042402;28;20045;-56
2024/01/09 12:23:19;;;;;;;5.82;2.70;;;9.70;99.90;;;;;;5043881;28;20036;-56
2024/01/09 12:25:48;;;;;;;5.30;2.22;;;;;;;;;;5041033;28;20411;-55
2024/01/09 12:28:14;;;;;;;6.30;2.67;;;11.60;99.90;;;;;;5042256;28;20044;-52
2024/01/09 12:30:39;;;;;;;5.13;2.10;;;12.10;99.90;;;;;;5042961;28;20036;-51
2024/01/09 12:33:05;;;;;;;6.47;2.40;;;;;;;;;;5062435;23;20506;-49
2024/01/09 12:35:32;;;;;;;8.98;3.92;;;;;;;;;;4959869;28;20503;-51
2024/01/09 12:37:58;;;;;;;8.40;2.67;;;;;;;;;;4956598;28;20125;-52
2024/01/09 12:40:24;;;;;;;4.70;2.05;;;;;;;;;;4957019;28;20089;-51
2024/01/09 12:43:06;;;;;;;6.05;2.10;;;;;;;;;;4957324;28;20061;-53
2024/01/09 12:45:32;;;;;;;4.78;2.10;;;14.40;99.90;;;;;;4956013;28;20046;-52
2024/01/09 12:47:58;;;;;;;8.18;2.30;;;14.70;99.90;;;;;;4956573;28;20039;-52
2024/01/09 12:50:27;;;;;;;6.05;2.67;;;;;;;;;;4952257;28;20130;-51
2024/01/09 12:52:53;;;;;;;5.28;2.15;;;14.90;99.90;;;;;;4955319;28;20055;-49
2024/01/09 12:55:19;;;;;;;5.68;2.42;;;14.70;99.90;;;;;;4957552;28;20044;-49
2024/01/09 12:57:44;;;;;;;4.95;2.00;;;15.20;99.90;;;;;;4953912;28;20510;-50
2024/01/09 13:00:10;;;;;;;4.88;2.33;;;15.10;99.90;;;;;;4955004;28;20442;-50
2024/01/09 13:02:36;;;;;;;5.45;2.42;;;15.60;1.00;;;;;;4954446;28;20042;-54
2024/01/09 13:05:02;;;;;;;5.35;2.47;;;15.80;1.00;;;;;;4953276;28;20438;-50
2024/01/09 13:07:27;;;;;;;5.68;2.70;;;15.60;1.00;;;;;;4955809;28;20502;-53
2024/01/09 13:09:53;;;;;;;5.75;2.38;;;16.00;1.00;;;;;;4954972;28;20047;-53
2024/01/09 13:12:18;;;;;;;5.45;2.47;;;16.60;1.00;;;;;;4953221;28;20062;-51
2024/01/09 13:14:44;;;;;;;6.25;2.60;;;15.40;1.00;;;;;;4956642;28;20070;-52
2024/01/09 13:17:09;;;;;;;4.68;2.00;;;16.20;1.00;;;;;;4949854;28;20090;-53
2024/01/09 13:19:35;;;;;;;5.18;2.25;;;16.10;1.00;;;;;;4955971;28;20495;-53
2024/01/09 13:22:01;;;;;;;4.80;2.20;;;16.40;1.00;;;;;;4954595;28;20039;-55
2024/01/09 13:24:26;;;;;;;4.90;2.15;;;16.80;1.00;;;;;;4953196;28;20122;-55
2024/01/09 13:26:52;;;;;;;4.63;2.30;;;17.40;1.00;;;;;;4956492;28;20039;-52
2024/01/09 13:29:19;;;;;;;5.15;2.28;;;17.70;1.00;;;;;;4955533;28;20466;-51
2024/01/09 13:31:45;;;;;;;5.65;2.78;;;16.40;1.00;;;;;;4957282;28;20132;-53
2024/01/09 13:34:11;;;;;;;5.05;2.22;;;17.00;1.00;;;;;;4952055;28;20067;-53
2024/01/09 13:36:37;;;;;;;6.35;2.20;;;16.90;1.00;;;;;;4956138;28;20035;-52
2024/01/09 13:39:03;;;;;;;4.70;2.03;;;16.00;1.00;;;;;;4952851;28;20081;-57
2024/01/09 13:41:29;;;;;;;4.30;2.00;;;15.80;1.00;;;;;;4962487;28;20088;-51
2024/01/09 13:43:54;;;;;;;4.95;2.30;;;14.10;99.90;;;;;;4971395;28;20046;-53
2024/01/09 13:46:20;;;;;;;4.57;2.20;;;12.50;99.90;;;;;;4973736;28;20046;-54
2024/01/09 13:48:46;;;;;;;4.55;2.05;;;12.30;99.90;;;;;;4971418;28;20039;-52
2024/01/09 13:51:12;;;;;;;4.35;1.90;;;11.20;99.90;;;;;;4970180;28;20037;-53
2024/01/09 13:53:38;;;;;;;5.13;2.10;;;10.10;99.90;;;;;;4970334;28;20046;-54
2024/01/09 13:56:05;;;;;;;4.55;2.00;;;8.40;99.90;;;;;;4969584;28;20097;-55
2024/01/09 13:58:31;;;;;;;4.43;1.95;;;7.80;99.90;;;;;;4969698;28;20505;-51
2024/01/09 14:00:57;;;;;;;5.20;2.08;;;7.50;99.90;;;;;;4970721;28;20043;-55
2024/01/09 14:03:25;;;;;;;4.60;2.08;;;6.40;99.90;;;;;;4970703;28;20039;-52
2024/01/09 14:05:52;;;;;;;4.43;2.15;;;6.60;99.90;;;;;;4970987;28;20047;-53
2024/01/09 14:08:18;;;;;;;5.45;2.17;;;6.00;99.90;;;;;;4971283;28;20074;-54
2024/01/09 14:10:43;;;;;;;6.03;2.03;;;5.60;99.90;;;;;;4969692;28;20074;-54